Time;durP1;ratioP1;P1;durP2;ratioP2;P2;SDS_P1;SDS_P2;PMS_P1;PMS_P2;Temp;Humidity;BMP_temperature;BMP_pressure;BME280_temperature;BME280_humidity;BME280_pressure;Samples;Min_cycle;Max_cycle;Signal;HPM_P1;HPM_P2
2022/09/22 00:00:21;;;;;;;11.52;5.68;;;;;;;;;;5053787;28;20405;-72
2022/09/22 00:02:47;;;;;;;8.07;4.78;;;;;;;;;;5055024;28;20041;-72
2022/09/22 00:05:14;;;;;;;8.10;5.22;;;;;;;;;;5055046;28;20137;-72
2022/09/22 00:07:40;;;;;;;10.32;5.30;;;;;;;;;;5054937;28;20044;-73
2022/09/22 00:10:07;;;;;;;9.50;5.80;;;;;;;;;;5054618;28;20498;-72
2022/09/22 00:12:34;;;;;;;10.27;5.50;;;;;;;;;;5041972;28;20115;-72
2022/09/22 00:15:00;;;;;;;12.90;6.10;;;;;;;;;;5062123;28;20043;-73
2022/09/22 00:17:27;;;;;;;11.18;5.60;;;;;;;;;;5053803;28;20504;-72
2022/09/22 00:19:53;;;;;;;12.52;5.43;;;;;;;;;;5054554;28;20033;-72
2022/09/22 00:22:19;;;;;;;9.82;5.57;;;;;;;;;;5054473;28;20049;-72
2022/09/22 00:24:45;;;;;;;9.65;5.43;;;;;;;;;;5053486;28;20048;-72
2022/09/22 00:27:11;;;;;;;10.60;5.45;;;;;;;;;;5067885;28;20043;-73
2022/09/22 00:29:37;;;;;;;7.90;5.28;;;;;;;;;;5054377;28;20047;-73
2022/09/22 00:32:03;;;;;;;8.60;5.50;;;;;;;;;;5065971;28;20048;-72
2022/09/22 00:34:29;;;;;;;10.57;5.85;;;;;;;;;;5056384;28;20052;-73
2022/09/22 00:36:55;;;;;;;9.15;5.50;;;;;;;;;;5054101;28;20132;-72
2022/09/22 00:39:21;;;;;;;9.73;5.45;;;;;;;;;;5068142;28;20036;-72
2022/09/22 00:41:49;;;;;;;8.25;4.30;;;;;;;;;;5052550;28;20040;-72
2022/09/22 00:44:34;;;;;;;8.10;4.65;;;;;;;;;;5054196;28;20041;-72
2022/09/22 00:47:16;;;;;;;9.20;4.13;;;;;;;;;;5072165;28;20067;-69
2022/09/22 00:49:48;;;;;;;10.55;4.13;;;;;;;;;;5073410;28;20036;-69
2022/09/22 00:52:16;;;;;;;15.23;5.00;;;;;;;;;;5071604;28;20098;-69
2022/09/22 00:54:42;;;;;;;11.10;4.63;;;;;;;;;;5058560;28;20052;-73
2022/09/22 00:57:14;;;;;;;6.65;3.80;;;;;;;;;;5053489;28;20041;-69
2022/09/22 00:59:41;;;;;;;7.38;3.63;;;;;;;;;;5046871;28;20044;-68
2022/09/22 01:02:07;;;;;;;6.05;2.80;;;;;;;;;;5057663;28;20036;-68
2022/09/22 01:04:34;;;;;;;7.53;3.38;;;;;;;;;;5073190;28;20098;-72
2022/09/22 01:07:00;;;;;;;6.20;3.13;;;;;;;;;;5071886;28;20528;-72
2022/09/22 01:09:27;;;;;;;5.78;3.35;;;;;;;;;;5035694;28;20064;-73
2022/09/22 01:11:53;;;;;;;7.22;3.20;;;;;;;;;;5065730;28;20048;-72
2022/09/22 01:14:31;;;;;;;5.88;3.60;;;;;;;;;;5035866;28;20542;-72
2022/09/22 01:17:12;;;;;;;8.13;3.67;;;;;;;;;;5052598;28;20457;-72
2022/09/22 01:19:57;;;;;;;7.57;2.80;;;;;;;;;;5046923;28;20047;-68
2022/09/22 01:22:34;;;;;;;10.60;3.20;;;;;;;;;;5071508;28;20076;-72
2022/09/22 01:25:06;;;;;;;8.63;3.25;;;;;;;;;;5063544;28;20044;-72
2022/09/22 01:27:48;;;;;;;7.05;3.28;;;;;;;;;;5054531;28;20068;-72
2022/09/22 01:30:17;;;;;;;7.50;3.15;;;;;;;;;;5062396;28;20382;-72
2022/09/22 01:32:46;;;;;;;5.85;3.30;;;;;;;;;;5055935;28;20119;-68
2022/09/22 01:35:23;;;;;;;10.02;3.88;;;;;;;;;;5072071;28;20048;-68
2022/09/22 01:38:08;;;;;;;8.48;4.50;;;;;;;;;;5055147;28;20051;-68
2022/09/22 01:40:41;;;;;;;9.82;3.80;;;;;;;;;;5072987;28;20044;-72
2022/09/22 01:43:24;;;;;;;8.48;3.45;;;;;;;;;;5052698;28;20498;-72
2022/09/22 01:45:51;;;;;;;6.32;3.10;;;;;;;;;;5052981;28;20048;-68
2022/09/22 01:48:19;;;;;;;5.53;3.30;;;;;;;;;;5071467;28;20028;-68
2022/09/22 01:50:49;;;;;;;7.70;3.90;;;;;;;;;;5042593;28;20045;-68
2022/09/22 01:53:18;;;;;;;8.20;2.63;;;;;;;;;;5070249;28;20116;-68
2022/09/22 01:55:47;;;;;;;6.93;3.08;;;;;;;;;;5061773;28;20075;-68
2022/09/22 01:58:21;;;;;;;4.97;2.70;;;;;;;;;;5080750;28;20143;-71
2022/09/22 02:00:50;;;;;;;4.97;3.30;;;;;;;;;;5052738;28;20033;-72
2022/09/22 02:03:43;;;;;;;6.85;3.10;;;;;;;;;;5052991;28;20037;-71
2022/09/22 02:06:11;;;;;;;7.20;2.90;;;;;;;;;;5034791;28;20049;-68
2022/09/22 02:08:37;;;;;;;9.80;3.08;;;;;;;;;;5051696;28;20041;-68
2022/09/22 02:11:08;;;;;;;11.32;3.80;;;;;;;;;;5050873;28;20108;-68
2022/09/22 02:13:35;;;;;;;8.65;2.90;;;;;;;;;;5067222;28;20056;-68
2022/09/22 02:16:02;;;;;;;7.68;3.53;;;;;;;;;;5050897;28;20050;-68
2022/09/22 02:18:37;;;;;;;6.80;2.92;;;;;;;;;;5052040;28;20063;-68
2022/09/22 02:21:04;;;;;;;6.47;3.00;;;;;;;;;;5050424;28;20123;-68
2022/09/22 02:23:31;;;;;;;6.20;3.08;;;;;;;;;;5051181;28;20323;-68
2022/09/22 02:25:57;;;;;;;8.00;4.03;;;;;;;;;;5051198;28;20498;-72
2022/09/22 02:28:24;;;;;;;10.32;4.68;;;;;;;;;;5050843;28;20049;-72
2022/09/22 02:30:51;;;;;;;5.70;2.75;;;;;;;;;;5067424;28;20037;-68
2022/09/22 02:33:19;;;;;;;4.70;2.67;;;;;;;;;;5053009;28;20044;-68
2022/09/22 02:35:46;;;;;;;7.07;2.70;;;;;;;;;;5051859;28;20036;-68
2022/09/22 02:38:12;;;;;;;7.38;2.38;;;;;;;;;;5047569;28;20494;-68
2022/09/22 02:40:46;;;;;;;5.97;2.65;;;;;;;;;;5051257;28;20119;-68
2022/09/22 02:43:22;;;;;;;5.15;2.63;;;;;;;;;;5051530;28;20033;-68
2022/09/22 02:46:06;;;;;;;8.30;4.17;;;;;;;;;;5052579;28;20037;-68
2022/09/22 02:48:35;;;;;;;7.85;4.32;;;;;;;;;;5047880;28;20357;-67
2022/09/22 02:51:01;;;;;;;9.85;3.90;;;;;;;;;;5054265;28;20127;-72
2022/09/22 02:53:27;;;;;;;9.27;3.67;;;;;;;;;;5055721;28;20484;-72
2022/09/22 02:55:54;;;;;;;8.05;3.10;;;;;;;;;;5055118;28;20047;-72
2022/09/22 02:58:20;;;;;;;9.30;2.92;;;;;;;;;;5037805;28;20068;-72
2022/09/22 03:00:46;;;;;;;4.38;2.58;;;;;;;;;;5054705;28;20044;-72
2022/09/22 03:03:12;;;;;;;6.45;3.17;;;;;;;;;;5054243;28;20132;-72
2022/09/22 03:05:38;;;;;;;7.32;3.53;;;;;;;;;;5056059;28;20103;-72
2022/09/22 03:08:05;;;;;;;6.40;2.80;;;;;;;;;;5055782;28;20489;-72
2022/09/22 03:10:31;;;;;;;8.13;3.10;;;;;;;;;;5037889;28;20041;-72
2022/09/22 03:12:57;;;;;;;5.82;3.08;;;;;;;;;;5055489;28;20509;-72
2022/09/22 03:15:23;;;;;;;6.35;3.50;;;;;;;;;;5054538;28;20033;-72
2022/09/22 03:17:49;;;;;;;6.13;3.65;;;;;;;;;;5054976;28;20163;-72
2022/09/22 03:20:16;;;;;;;7.57;3.50;;;;;;;;;;5055821;28;20036;-72
2022/09/22 03:22:42;;;;;;;9.15;3.70;;;;;;;;;;5055446;28;20048;-72
2022/09/22 03:25:09;;;;;;;7.85;3.70;;;;;;;;;;5055482;28;20074;-68
2022/09/22 03:27:36;;;;;;;6.10;3.50;;;;;;;;;;5051479;28;20104;-68
2022/09/22 03:30:05;;;;;;;5.88;3.08;;;;;;;;;;5068275;28;20060;-68
2022/09/22 03:32:31;;;;;;;10.75;4.55;;;;;;;;;;5055205;28;20052;-72
2022/09/22 03:34:57;;;;;;;8.20;3.72;;;;;;;;;;5054280;28;20045;-72
2022/09/22 03:37:24;;;;;;;8.27;3.40;;;;;;;;;;5054426;28;20037;-72
2022/09/22 03:39:50;;;;;;;7.70;4.22;;;;;;;;;;5055581;28;20076;-72
2022/09/22 03:42:16;;;;;;;6.93;3.40;;;;;;;;;;5053918;28;20070;-72
2022/09/22 03:44:42;;;;;;;12.27;4.13;;;;;;;;;;5054200;28;20084;-72
2022/09/22 03:47:08;;;;;;;6.30;3.80;;;;;;;;;;5054008;28;20059;-72
2022/09/22 03:49:34;;;;;;;11.43;4.40;;;;;;;;;;5053973;28;20047;-72
2022/09/22 03:52:01;;;;;;;11.63;4.47;;;;;;;;;;5053965;28;20049;-72
2022/09/22 03:54:27;;;;;;;11.80;5.07;;;;;;;;;;5055184;28;20032;-72
2022/09/22 03:56:54;;;;;;;9.13;4.50;;;;;;;;;;5055037;28;20036;-72
2022/09/22 03:59:20;;;;;;;14.52;6.90;;;;;;;;;;5053562;28;20052;-72
2022/09/22 04:01:46;;;;;;;7.75;5.10;;;;;;;;;;5056003;28;20040;-72
2022/09/22 04:04:12;;;;;;;11.77;5.18;;;;;;;;;;5055115;28;20506;-72
2022/09/22 04:06:38;;;;;;;10.60;5.28;;;;;;;;;;5052544;28;20057;-72
2022/09/22 04:09:05;;;;;;;8.13;4.70;;;;;;;;;;5053364;28;20067;-72
2022/09/22 04:11:31;;;;;;;10.45;4.90;;;;;;;;;;5054604;28;20130;-72
2022/09/22 04:13:58;;;;;;;8.23;4.85;;;;;;;;;;5053506;28;20041;-72
2022/09/22 04:16:24;;;;;;;8.65;4.88;;;;;;;;;;5053567;28;20055;-72
2022/09/22 04:18:51;;;;;;;11.32;5.30;;;;;;;;;;5053930;28;20428;-72
2022/09/22 04:21:17;;;;;;;9.40;4.68;;;;;;;;;;5054692;28;20045;-72
2022/09/22 04:23:43;;;;;;;8.98;5.15;;;;;;;;;;5053286;28;20068;-72
2022/09/22 04:26:09;;;;;;;10.25;5.68;;;;;;;;;;5054780;28;20041;-72
2022/09/22 04:28:35;;;;;;;9.23;6.80;;;;;;;;;;5053193;28;20044;-72
2022/09/22 04:31:01;;;;;;;10.38;6.50;;;;;;;;;;5054618;28;20090;-72
2022/09/22 04:33:27;;;;;;;8.52;4.85;;;;;;;;;;5053559;28;20555;-72
2022/09/22 04:35:53;;;;;;;8.35;5.13;;;;;;;;;;5053430;28;20485;-72
2022/09/22 04:38:19;;;;;;;15.98;8.23;;;;;;;;;;5054907;28;20121;-72
2022/09/22 04:40:48;;;;;;;8.10;4.80;;;;;;;;;;5054353;28;20040;-72
2022/09/22 04:43:14;;;;;;;10.63;5.10;;;;;;;;;;5053174;28;20063;-72
2022/09/22 04:45:44;;;;;;;10.07;5.25;;;;;;;;;;5057021;28;20056;-72
2022/09/22 04:48:10;;;;;;;9.43;6.15;;;;;;;;;;5054372;28;20047;-72
2022/09/22 04:50:36;;;;;;;11.23;6.10;;;;;;;;;;5054154;28;20103;-72
2022/09/22 04:53:02;;;;;;;14.02;7.63;;;;;;;;;;5052955;28;20037;-72
2022/09/22 04:55:28;;;;;;;12.15;7.55;;;;;;;;;;5054107;28;20076;-72
2022/09/22 04:57:56;;;;;;;12.13;7.70;;;;;;;;;;5059986;28;20045;-72
2022/09/22 05:00:22;;;;;;;11.23;5.30;;;;;;;;;;5052825;28;20405;-72
2022/09/22 05:02:49;;;;;;;11.32;6.78;;;;;;;;;;5053950;28;20050;-68
2022/09/22 05:05:15;;;;;;;12.90;8.07;;;;;;;;;;5052054;28;20505;-68
2022/09/22 05:07:42;;;;;;;12.18;7.40;;;;;;;;;;5051617;28;20053;-68
2022/09/22 05:10:09;;;;;;;11.95;7.05;;;;;;;;;;5051381;28;20048;-68
2022/09/22 05:12:38;;;;;;;13.18;6.93;;;;;;;;;;5052677;28;20041;-68
2022/09/22 05:15:04;;;;;;;22.33;14.43;;;;;;;;;;5053498;28;20508;-68
2022/09/22 05:17:30;;;;;;;16.50;10.10;;;;;;;;;;5052782;28;20099;-68
2022/09/22 05:19:56;;;;;;;14.10;8.00;;;;;;;;;;5052277;28;20508;-68
2022/09/22 05:22:22;;;;;;;15.25;7.35;;;;;;;;;;5053044;28;20037;-68
2022/09/22 05:24:48;;;;;;;15.25;8.40;;;;;;;;;;5052850;28;20033;-68
2022/09/22 05:27:14;;;;;;;13.55;7.57;;;;;;;;;;5052903;28;20116;-68
2022/09/22 05:29:41;;;;;;;11.90;7.80;;;;;;;;;;5050913;28;20045;-68
2022/09/22 05:32:07;;;;;;;16.23;9.13;;;;;;;;;;5051809;28;20049;-68
2022/09/22 05:34:33;;;;;;;15.35;8.60;;;;;;;;;;5051256;28;20094;-68
2022/09/22 05:36:59;;;;;;;14.15;8.02;;;;;;;;;;5052715;28;20045;-68
2022/09/22 05:39:25;;;;;;;18.33;9.88;;;;;;;;;;5052131;28;20517;-72
2022/09/22 05:41:51;;;;;;;13.82;8.63;;;;;;;;;;5052834;28;20585;-73
2022/09/22 05:44:17;;;;;;;15.27;8.98;;;;;;;;;;5053432;28;20568;-72
2022/09/22 05:46:45;;;;;;;12.90;9.05;;;;;;;;;;5051931;28;20045;-72
2022/09/22 05:49:11;;;;;;;12.38;8.45;;;;;;;;;;5062464;28;20120;-72
2022/09/22 05:51:38;;;;;;;12.20;7.88;;;;;;;;;;5056347;28;20368;-72
2022/09/22 05:54:04;;;;;;;10.57;7.10;;;;;;;;;;5052128;28;20394;-72
2022/09/22 05:56:31;;;;;;;9.95;6.60;;;;;;;;;;5051737;28;20063;-72
2022/09/22 05:58:57;;;;;;;13.48;6.05;;;;;;;;;;5052735;28;20076;-72
2022/09/22 06:01:23;;;;;;;9.63;5.95;;;;;;;;;;5051863;28;20439;-73
2022/09/22 06:03:49;;;;;;;7.80;5.63;;;;;;;;;;5034831;28;20057;-72
2022/09/22 06:06:15;;;;;;;9.38;4.95;;;;;;;;;;5051991;28;20513;-73
2022/09/22 06:08:41;;;;;;;8.73;5.15;;;;;;;;;;5035240;28;20056;-73
2022/09/22 06:11:07;;;;;;;11.45;4.95;;;;;;;;;;5052852;28;20424;-73
2022/09/22 06:13:34;;;;;;;8.13;4.53;;;;;;;;;;5052902;28;20115;-73
2022/09/22 06:16:01;;;;;;;6.82;4.22;;;;;;;;;;5052765;28;20134;-73
2022/09/22 06:18:28;;;;;;;8.82;4.30;;;;;;;;;;5053705;28;20037;-73
2022/09/22 06:20:57;;;;;;;8.38;4.20;;;;;;;;;;5053018;28;20383;-73
2022/09/22 06:23:24;;;;;;;6.85;4.53;;;;;;;;;;5034906;28;20041;-74
2022/09/22 06:25:56;;;;;;;8.50;4.80;;;;;;;;;;5051719;28;20040;-74
2022/09/22 06:28:22;;;;;;;8.18;4.90;;;;;;;;;;5051856;28;20057;-74
2022/09/22 06:30:50;;;;;;;9.57;4.88;;;;;;;;;;5052986;28;20041;-74
2022/09/22 06:33:17;;;;;;;8.95;5.40;;;;;;;;;;5053261;28;20044;-73
2022/09/22 06:35:44;;;;;;;8.18;4.97;;;;;;;;;;5053041;28;20456;-73
2022/09/22 06:38:14;;;;;;;6.90;4.80;;;;;;;;;;5051429;28;20048;-74
2022/09/22 06:40:41;;;;;;;12.25;5.43;;;;;;;;;;5052734;28;20043;-74
2022/09/22 06:43:13;;;;;;;8.43;5.10;;;;;;;;;;5051388;28;20045;-74
2022/09/22 06:45:39;;;;;;;9.32;5.05;;;;;;;;;;5034897;28;20486;-74
2022/09/22 06:48:06;;;;;;;8.90;5.20;;;;;;;;;;5051308;28;20127;-74
2022/09/22 06:50:32;;;;;;;9.43;4.80;;;;;;;;;;5051222;28;20124;-74
2022/09/22 06:53:03;;;;;;;8.57;5.05;;;;;;;;;;5052489;28;20045;-74
2022/09/22 06:55:30;;;;;;;6.50;4.60;;;;;;;;;;5038119;28;20486;-69
2022/09/22 06:58:01;;;;;;;11.23;5.22;;;;;;;;;;5050008;28;20079;-69
2022/09/22 07:00:31;;;;;;;10.68;5.18;;;;;;;;;;5050696;28;20044;-69
2022/09/22 07:03:05;;;;;;;8.05;5.07;;;;;;;;;;5051430;28;20118;-70
2022/09/22 07:05:32;;;;;;;7.85;5.40;;;;;;;;;;5052147;28;20128;-74
2022/09/22 07:07:58;;;;;;;7.72;5.03;;;;;;;;;;5051160;28;20049;-75
2022/09/22 07:10:24;;;;;;;10.48;4.80;;;;;;;;;;5033789;28;20074;-70
2022/09/22 07:12:50;;;;;;;8.07;4.60;;;;;;;;;;5049824;28;20033;-70
2022/09/22 07:15:16;;;;;;;9.20;5.07;;;;;;;;;;5051702;28;20120;-70
2022/09/22 07:17:42;;;;;;;8.25;4.15;;;;;;;;;;5049976;28;20037;-70
2022/09/22 07:20:08;;;;;;;7.82;3.90;;;;;;;;;;5051989;28;20223;-70
2022/09/22 07:22:38;;;;;;;7.25;3.95;;;;;;;;;;5050209;28;20091;-70
2022/09/22 07:25:05;;;;;;;8.70;3.88;;;;;;;;;;5051175;28;20045;-70
2022/09/22 07:27:32;;;;;;;8.25;3.70;;;;;;;;;;5048523;28;20044;-70
2022/09/22 07:29:58;;;;;;;5.78;3.55;;;;;;;;;;5050216;28;20052;-75
2022/09/22 07:32:26;;;;;;;6.18;3.83;;;;;;;;;;5050866;28;20045;-75
2022/09/22 07:34:53;;;;;;;7.93;3.70;;;;;;;;;;5055483;28;20045;-75
2022/09/22 07:37:19;;;;;;;6.43;3.78;;;;;;;;;;5056101;28;20044;-74
2022/09/22 07:39:45;;;;;;;8.15;3.90;;;;;;;;;;5055827;28;20518;-74
2022/09/22 07:42:11;;;;;;;7.45;3.67;;;;;;;;;;5056032;28;20041;-74
2022/09/22 07:48:34;;;;;;;5.57;3.75;;;;;;;;;;5055494;28;20040;-74
2022/09/22 07:50:08;;;;;;;7.15;3.88;;;;;;;;;;5054033;28;20068;-74
2022/09/22 07:52:34;;;;;;;6.68;3.60;;;;;;;;;;5054509;28;20053;-75
2022/09/22 07:55:00;;;;;;;11.10;3.97;;;;;;;;;;5055018;28;20037;-70
2022/09/22 07:57:30;;;;;;;6.55;3.92;;;;;;;;;;5036855;28;20041;-69
2022/09/22 07:59:56;;;;;;;6.45;3.97;;;;;;;;;;5052822;28;20047;-69
2022/09/22 08:02:24;;;;;;;6.13;3.95;;;;;;;;;;5054650;28;20575;-69
2022/09/22 08:04:50;;;;;;;9.05;4.00;;;;;;;;;;5052710;28;20055;-69
2022/09/22 08:07:17;;;;;;;7.88;4.70;;;;;;;;;;5054494;28;20057;-68
2022/09/22 08:09:43;;;;;;;7.38;4.32;;;;;;;;;;5053299;28;20079;-69
2022/09/22 08:12:09;;;;;;;8.95;4.38;;;;;;;;;;5052634;28;20059;-68
2022/09/22 08:14:35;;;;;;;12.02;3.90;;;;;;;;;;5052524;28;20037;-69
2022/09/22 08:17:01;;;;;;;8.50;4.60;;;;;;;;;;5054156;28;20045;-69
2022/09/22 08:19:32;;;;;;;9.32;4.03;;;;;;;;;;5053234;28;20056;-69
2022/09/22 08:21:58;;;;;;;10.35;4.78;;;;;;;;;;5053041;28;20056;-69
2022/09/22 08:24:24;;;;;;;8.60;4.28;;;;;;;;;;5054114;28;20076;-69
2022/09/22 08:26:51;;;;;;;10.65;5.20;;;;;;;;;;5053875;28;20044;-69
2022/09/22 08:29:17;;;;;;;8.25;4.50;;;;;;;;;;5052527;28;20410;-69
2022/09/22 08:31:47;;;;;;;8.25;4.38;;;;;;;;;;5052966;28;20033;-70
2022/09/22 08:34:15;;;;;;;7.45;4.40;;;;;;;;;;5052860;28;20068;-69
2022/09/22 08:36:45;;;;;;;10.55;4.80;;;;;;;;;;5052540;28;20087;-70
2022/09/22 08:39:11;;;;;;;6.75;4.30;;;;;;;;;;5053510;28;20049;-69
2022/09/22 08:41:37;;;;;;;7.97;4.55;;;;;;;;;;5036436;28;20123;-75
2022/09/22 08:44:09;;;;;;;6.53;4.43;;;;;;;;;;5052839;28;20056;-75
2022/09/22 08:46:45;;;;;;;7.50;4.50;;;;;;;;;;5053765;28;20387;-76
2022/09/22 08:52:04;;;;;;;13.63;3.88;;;;;;;;;;5054267;28;20516;-76
2022/09/22 08:54:31;;;;;;;6.88;3.55;;;;;;;;;;5036607;28;20375;-77
2022/09/22 08:57:23;;;;;;;10.32;3.80;;;;;;;;;;5053244;28;20040;-76
2022/09/22 08:59:55;;;;;;;6.57;2.90;;;;;;;;;;5053213;28;20175;-75
2022/09/22 09:02:33;;;;;;;7.00;3.67;;;;;;;;;;5053023;28;20414;-75
2022/09/22 09:05:26;;;;;;;6.82;3.33;;;;;;;;;;5052558;28;20407;-75
2022/09/22 09:07:57;;;;;;;5.05;2.97;;;;;;;;;;5032092;28;20486;-74
2022/09/22 09:10:39;;;;;;;6.20;3.28;;;;;;;;;;5053782;28;20433;-75
2022/09/22 09:13:05;;;;;;;7.05;3.03;;;;;;;;;;5054490;28;20041;-74
2022/09/22 09:15:44;;;;;;;6.68;2.95;;;;;;;;;;5051818;28;20044;-69
2022/09/22 09:18:19;;;;;;;6.75;2.60;;;;;;;;;;5053065;28;20394;-69
2022/09/22 09:20:46;;;;;;;6.40;2.80;;;;;;;;;;5052047;28;20497;-69
2022/09/22 09:23:16;;;;;;;7.20;2.70;;;;;;;;;;5051536;28;20049;-69
2022/09/22 09:25:43;;;;;;;4.35;2.50;;;;;;;;;;5052953;28;20040;-69
2022/09/22 09:28:15;;;;;;;5.38;2.63;;;;;;;;;;5049875;28;20076;-69
2022/09/22 09:30:46;;;;;;;5.07;2.55;;;;;;;;;;5051412;28;20040;-69
2022/09/22 09:33:17;;;;;;;6.05;2.40;;;;;;;;;;5051551;28;20037;-70
2022/09/22 09:35:43;;;;;;;7.55;2.63;;;;;;;;;;5052865;28;20047;-71
2022/09/22 09:38:13;;;;;;;3.80;2.03;;;;;;;;;;5052595;28;20044;-71
2022/09/22 09:40:39;;;;;;;3.97;2.20;;;;;;;;;;5052879;28;20052;-71
2022/09/22 09:43:06;;;;;;;5.47;2.00;;;;;;;;;;5051085;28;20048;-71
2022/09/22 09:45:41;;;;;;;5.57;2.40;;;;;;;;;;5051249;28;20045;-71
2022/09/22 09:48:10;;;;;;;4.60;2.08;;;;;;;;;;5052196;28;20041;-71
2022/09/22 09:50:36;;;;;;;5.55;2.10;;;;;;;;;;5052707;28;20090;-71
2022/09/22 09:53:03;;;;;;;6.05;1.80;;;;;;;;;;5052277;28;20052;-71
2022/09/22 09:55:29;;;;;;;6.35;2.35;;;;;;;;;;5051138;28;20075;-73
2022/09/22 09:58:01;;;;;;;4.15;2.33;;;;;;;;;;5061015;28;20063;-71
2022/09/22 10:00:30;;;;;;;4.93;2.00;;;;;;;;;;5055632;28;20044;-71
2022/09/22 10:03:03;;;;;;;5.32;2.28;;;;;;;;;;5052857;28;20041;-71
2022/09/22 10:05:30;;;;;;;7.60;2.47;;;;;;;;;;5052144;28;20110;-71
2022/09/22 10:07:58;;;;;;;4.70;2.47;;;;;;;;;;5051215;28;20049;-71
2022/09/22 10:10:30;;;;;;;9.98;3.05;;;;;;;;;;5034638;28;20044;-71
2022/09/22 10:12:59;;;;;;;5.57;2.67;;;;;;;;;;5020569;28;20048;-71
2022/09/22 10:15:26;;;;;;;5.22;2.40;;;;;;;;;;5051972;28;20041;-71
2022/09/22 10:17:52;;;;;;;6.53;2.83;;;;;;;;;;5051127;28;20037;-71
2022/09/22 10:20:22;;;;;;;6.32;2.60;;;;;;;;;;5051219;28;20504;-71
2022/09/22 10:22:49;;;;;;;5.32;2.72;;;;;;;;;;5050840;28;20044;-77
2022/09/22 10:25:21;;;;;;;6.65;2.60;;;;;;;;;;5050791;28;20123;-77
2022/09/22 10:28:08;;;;;;;4.60;2.88;;;;;;;;;;5050894;28;20040;-76
2022/09/22 10:30:36;;;;;;;4.35;2.25;;;;;;;;;;5051178;28;20059;-77
2022/09/22 10:33:17;;;;;;;6.82;2.53;;;;;;;;;;5050396;28;20067;-77
2022/09/22 10:35:54;;;;;;;7.60;2.63;;;;;;;;;;5051011;28;20048;-76
2022/09/22 10:38:21;;;;;;;5.95;2.25;;;;;;;;;;5051982;28;20397;-76
2022/09/22 10:41:26;;;;;;;5.10;2.20;;;;;;;;;;5050816;28;20401;-76
2022/09/22 10:43:52;;;;;;;5.35;1.90;;;;;;;;;;5013609;28;20064;-75
2022/09/22 10:46:21;;;;;;;4.82;1.52;;;;;;;;;;5013175;28;20040;-77
2022/09/22 10:48:52;;;;;;;6.63;2.80;;;;;;;;;;5030438;28;20053;-76
2022/09/22 10:51:18;;;;;;;5.43;2.40;;;;;;;;;;5050915;28;20057;-76
2022/09/22 10:53:54;;;;;;;7.93;2.90;;;;;;;;;;5052005;28;20494;-76
2022/09/22 10:56:20;;;;;;;6.50;2.28;;;;;;;;;;5050315;28;20079;-76
2022/09/22 10:59:07;;;;;;;6.55;2.00;;;;;;;;;;5050374;28;20123;-76
2022/09/22 11:01:36;;;;;;;9.77;3.65;;;;;;;;;;5051862;28;20049;-76
2022/09/22 11:04:20;;;;;;;4.95;2.72;;;;;;;;;;5051368;28;20515;-76
2022/09/22 11:12:38;;;;;;;5.32;3.10;;;;;;;;;;5054435;28;20308;-76
2022/09/22 11:15:10;;;;;;;5.88;2.90;;;;;;;;;;5054508;28;20133;-76
2022/09/22 11:17:44;;;;;;;6.75;2.92;;;;;;;;;;5053998;28;20080;-71
2022/09/22 11:20:30;;;;;;;4.97;2.60;;;;;;;;;;5054023;28;20047;-71
2022/09/22 11:23:05;;;;;;;5.32;2.70;;;;;;;;;;5054183;28;20084;-70
2022/09/22 11:25:34;;;;;;;5.68;3.10;;;;;;;;;;5055016;28;20037;-71
2022/09/22 11:28:02;;;;;;;7.30;3.03;;;;;;;;;;5052440;28;20033;-70
2022/09/22 11:30:31;;;;;;;7.10;3.33;;;;;;;;;;5053995;28;20053;-71
2022/09/22 11:33:01;;;;;;;5.05;3.38;;;;;;;;;;5053724;28;20045;-70
2022/09/22 11:35:40;;;;;;;5.68;3.30;;;;;;;;;;5055302;28;20397;-70
2022/09/22 11:38:17;;;;;;;5.82;3.00;;;;;;;;;;5053733;28;20090;-70
2022/09/22 11:40:50;;;;;;;6.55;3.30;;;;;;;;;;5053765;28;20379;-70
2022/09/22 11:43:34;;;;;;;8.63;3.33;;;;;;;;;;5053203;28;20063;-69
2022/09/22 11:46:06;;;;;;;5.37;3.27;;;;;;;;;;5053841;28;20052;-70
2022/09/22 11:48:51;;;;;;;6.43;3.22;;;;;;;;;;5053078;28;20041;-69
2022/09/22 11:51:20;;;;;;;7.22;3.30;;;;;;;;;;5054954;28;20069;-70
2022/09/22 11:54:00;;;;;;;6.30;3.03;;;;;;;;;;5040055;28;20478;-70
2022/09/22 11:56:36;;;;;;;7.55;3.40;;;;;;;;;;5053387;28;20402;-69
2022/09/22 11:59:08;;;;;;;6.30;3.25;;;;;;;;;;5053293;28;20045;-70
2022/09/22 12:01:37;;;;;;;6.03;3.13;;;;;;;;;;5053356;28;20494;-70
2022/09/22 12:04:10;;;;;;;5.68;2.85;;;;;;;;;;5054311;28;20060;-70
2022/09/22 12:06:40;;;;;;;5.50;2.92;;;;;;;;;;5053708;28;20045;-69
2022/09/22 12:09:11;;;;;;;6.82;3.38;;;;;;;;;;5053509;28;20494;-70
2022/09/22 12:11:39;;;;;;;6.53;2.78;;;;;;;;;;5036640;28;20044;-69
2022/09/22 12:14:08;;;;;;;4.50;2.75;;;;;;;;;;5054215;28;20448;-70
2022/09/22 12:16:44;;;;;;;6.00;2.85;;;;;;;;;;5054116;28;20121;-69
2022/09/22 12:19:24;;;;;;;4.60;2.65;;;;;;;;;;5054587;28;20124;-69
2022/09/22 12:22:09;;;;;;;9.45;2.80;;;;;;;;;;5053122;28;20116;-69
2022/09/22 12:24:36;;;;;;;5.82;2.80;;;;;;;;;;5052576;28;20372;-74
2022/09/22 12:27:09;;;;;;;7.82;2.60;;;;;;;;;;5053050;28;20051;-74
2022/09/22 12:29:37;;;;;;;6.45;2.20;;;;;;;;;;5051453;28;20402;-74
2022/09/22 12:32:03;;;;;;;8.07;2.40;;;;;;;;;;5053291;28;20441;-74
2022/09/22 12:34:34;;;;;;;6.32;2.20;;;;;;;;;;5052594;28;20076;-75
2022/09/22 12:37:23;;;;;;;5.00;2.60;;;;;;;;;;5054093;28;20041;-74
2022/09/22 12:39:50;;;;;;;6.88;2.50;;;;;;;;;;5050801;28;20148;-74
2022/09/22 12:42:19;;;;;;;6.15;2.90;;;;;;;;;;5053088;28;20037;-74
2022/09/22 12:44:48;;;;;;;6.68;2.58;;;;;;;;;;5052728;28;20053;-74
2022/09/22 12:47:21;;;;;;;6.68;2.90;;;;;;;;;;5052752;28;20040;-74
2022/09/22 12:49:56;;;;;;;7.88;2.80;;;;;;;;;;5052379;28;20075;-74
2022/09/22 12:52:34;;;;;;;4.72;2.33;;;;;;;;;;5052016;28;20119;-75
2022/09/22 12:55:37;;;;;;;4.40;2.38;;;;;;;;;;5052185;28;20049;-75
2022/09/22 12:58:04;;;;;;;5.75;2.20;;;;;;;;;;5041308;28;20511;-75
2022/09/22 13:00:34;;;;;;;6.18;2.42;;;;;;;;;;5056097;28;20501;-74
2022/09/22 13:03:21;;;;;;;6.00;2.42;;;;;;;;;;5053797;28;20043;-74
2022/09/22 13:05:48;;;;;;;4.78;2.20;;;;;;;;;;5053201;28;20124;-74
2022/09/22 13:08:16;;;;;;;7.15;2.30;;;;;;;;;;5052428;28;20075;-74
2022/09/22 13:10:49;;;;;;;4.63;2.13;;;;;;;;;;5051886;28;20048;-73
2022/09/22 13:13:38;;;;;;;4.68;2.13;;;;;;;;;;5052162;28;20041;-74
2022/09/22 13:16:25;;;;;;;5.95;2.40;;;;;;;;;;5035014;28;20057;-74
2022/09/22 13:18:51;;;;;;;7.32;2.40;;;;;;;;;;5044969;28;20048;-74
2022/09/22 13:21:28;;;;;;;8.18;2.70;;;;;;;;;;5053098;28;20037;-74
2022/09/22 13:23:57;;;;;;;5.88;2.60;;;;;;;;;;5052288;28;20045;-74
2022/09/22 13:26:23;;;;;;;5.47;2.25;;;;;;;;;;5051994;28;20398;-73
2022/09/22 13:29:13;;;;;;;6.28;2.40;;;;;;;;;;5033781;28;20037;-74
2022/09/22 13:31:42;;;;;;;5.70;2.30;;;;;;;;;;5045834;28;20076;-74
2022/09/22 13:34:20;;;;;;;6.45;2.28;;;;;;;;;;5052182;28;20509;-74
2022/09/22 13:36:47;;;;;;;5.32;2.38;;;;;;;;;;5034790;28;20086;-73
2022/09/22 13:39:14;;;;;;;5.25;2.63;;;;;;;;;;5052805;28;20075;-74
2022/09/22 13:41:44;;;;;;;4.38;2.83;;;;;;;;;;5051398;28;20032;-74
2022/09/22 13:44:11;;;;;;;5.43;2.55;;;;;;;;;;5051725;28;20044;-74
2022/09/22 13:46:39;;;;;;;5.10;2.70;;;;;;;;;;5034730;28;20501;-74
2022/09/22 13:49:08;;;;;;;5.47;2.50;;;;;;;;;;5051568;28;20512;-74
2022/09/22 13:51:34;;;;;;;6.50;2.70;;;;;;;;;;5050928;28;20036;-68
2022/09/22 13:54:02;;;;;;;5.53;2.70;;;;;;;;;;5052548;28;20511;-68
2022/09/22 13:56:29;;;;;;;6.68;2.92;;;;;;;;;;5051012;28;20400;-69
2022/09/22 13:58:57;;;;;;;5.60;2.55;;;;;;;;;;5052445;28;20045;-68
2022/09/22 14:01:25;;;;;;;5.07;2.63;;;;;;;;;;5052628;28;20037;-68
2022/09/22 14:03:52;;;;;;;5.45;2.67;;;;;;;;;;5052273;28;20486;-68
2022/09/22 14:06:20;;;;;;;5.03;3.15;;;;;;;;;;5051264;28;20498;-71
2022/09/22 14:08:47;;;;;;;5.72;2.85;;;;;;;;;;5052092;28;20432;-68
2022/09/22 14:11:15;;;;;;;6.15;3.08;;;;;;;;;;5051530;28;20517;-68
2022/09/22 14:13:53;;;;;;;6.65;2.53;;;;;;;;;;5050795;28;20052;-69
2022/09/22 14:16:22;;;;;;;6.57;2.78;;;;;;;;;;5051204;28;20552;-69
2022/09/22 14:18:51;;;;;;;5.72;2.47;;;;;;;;;;5051761;28;20371;-69
2022/09/22 14:21:17;;;;;;;4.90;2.60;;;;;;;;;;5052119;28;20029;-69
2022/09/22 14:23:45;;;;;;;7.50;2.60;;;;;;;;;;5050535;28;20101;-69
2022/09/22 14:26:23;;;;;;;6.43;2.38;;;;;;;;;;5052067;28;20032;-69
2022/09/22 14:28:50;;;;;;;4.25;2.17;;;;;;;;;;5049185;28;20045;-69
2022/09/22 14:31:20;;;;;;;5.03;2.22;;;;;;;;;;5051032;28;20501;-69
2022/09/22 14:33:46;;;;;;;5.95;2.33;;;;;;;;;;5050384;28;20163;-69
2022/09/22 14:36:16;;;;;;;5.93;2.40;;;;;;;;;;5052222;28;20036;-69
2022/09/22 14:38:43;;;;;;;5.90;2.45;;;;;;;;;;5033588;28;20041;-68
2022/09/22 14:41:20;;;;;;;5.50;2.60;;;;;;;;;;5050552;28;20051;-68
2022/09/22 14:43:46;;;;;;;5.15;2.40;;;;;;;;;;5053800;28;20432;-68
2022/09/22 14:46:33;;;;;;;6.43;2.67;;;;;;;;;;5055838;28;20115;-69
2022/09/22 14:49:22;;;;;;;8.25;2.70;;;;;;;;;;5054725;28;20041;-69
2022/09/22 14:51:48;;;;;;;5.82;2.45;;;;;;;;;;5048080;28;20053;-75
2022/09/22 14:54:15;;;;;;;5.28;2.53;;;;;;;;;;5056107;28;20120;-75
2022/09/22 14:56:42;;;;;;;5.60;2.50;;;;;;;;;;5055399;28;20124;-75
2022/09/22 15:04:53;;;;;;;7.18;2.45;;;;;;;;;;5055422;28;20084;-75
2022/09/22 15:07:22;;;;;;;5.55;2.50;;;;;;;;;;5054489;28;20045;-75
2022/09/22 15:09:50;;;;;;;7.05;2.50;;;;;;;;;;5055459;28;20237;-75
2022/09/22 15:12:43;;;;;;;10.63;2.88;;;;;;;;;;5055872;28;20064;-75